Latest Weather Observations for Croker Island Airport

IDD60801

Issued at 9:35 am CST Wednesday 26 November 2014 (issued every 30 minutes, with the page automatically refreshed every 10 minutes)

About weather observations | Map of weather stations | Latest weather observations for NT | Other Formats
Station Details ID: 014308 Name: CROKER ISLAND AIRPORT Lat: -11.16 Lon: 132.48 Height: 9.2 m
Data from the previous 72 hours. | See also: Recent months for locations in Northern Territory
Date/Time
CST
Temp
°C
App
Temp
°C
Dew
Point
Rel
Hum
%
Delta-T
°C
Wind Press
QNH
hPa
Press
MSL
hPa
Rain
since 9 am
mm
Dir
 
Spd
km/h
Gust
km/h
Spd
kts
Gust
kts
26/09:30am 33.1 35.7 21.9 51 7.6 E 11 20 6 11 1009.0 1008.9 -
26/09:00am 32.4 35.9 22.8 57 6.6 ENE 9 15 5 8 1008.7 1008.6 -
26/08:30am 31.7 35.8 23.0 60 6.0 ENE 6 13 3 7 1008.5 1008.4 -
26/08:00am 30.6 35.0 23.5 66 4.9 E 6 9 3 5 1008.4 1008.3 -
26/07:30am 29.1 35.0 24.7 77 3.1 ENE 2 4 1 2 1008.1 1008.0 -
26/07:00am 26.9 32.7 24.5 87 1.7 ENE 2 4 1 2 1007.9 1007.8 -
26/06:30am 25.7 30.6 23.7 89 1.4 ENE 4 6 2 3 1007.7 1007.6 -
26/06:00am 25.1 30.4 23.0 88 1.4 CALM 0 2 0 1 1007.2 1007.1 -
26/05:30am 25.4 30.0 23.1 87 1.6 ENE 4 4 2 2 1007.1 1007.0 -
26/05:00am 25.3 29.7 22.8 86 1.7 ENE 4 4 2 2 1006.9 1006.8 -
26/04:30am 25.3 30.0 22.6 85 1.8 ENE 2 4 1 2 1006.7 1006.6 -
26/04:00am 25.7 30.2 23.0 85 1.8 ENE 4 4 2 2 1006.7 1006.6 -
26/03:30am 25.6 29.9 22.7 84 2.0 E 4 4 2 2 1006.6 1006.5 -
26/03:00am 25.7 30.4 22.6 83 2.1 E 2 4 1 2 1006.7 1006.6 -
26/02:30am 25.9 30.6 22.6 82 2.2 E 2 4 1 2 1006.8 1006.7 -
26/02:00am 26.2 30.5 22.7 81 2.4 E 4 4 2 2 1007.1 1007.0 -
26/01:30am 26.2 30.4 22.5 80 2.5 E 4 4 2 2 1007.3 1007.2 -
26/01:00am 26.5 30.8 22.6 79 2.6 E 4 6 2 3 1007.6 1007.5 -
26/12:30am 26.8 31.2 22.8 79 2.7 E 4 6 2 3 1007.8 1007.7 -
26/12:00am 26.6 30.8 22.4 78 2.8 E 4 4 2 2 1008.2 1008.1 -
 
Date/Time
CST
Temp
°C
App
Temp
°C
Dew
Point
Rel
Hum
%
Delta-T
°C
Wind Press
QNH
hPa
Press
MSL
hPa
Rain
since 9 am
mm
Dir
 
Spd
km/h
Gust
km/h
Spd
kts
Gust
kts
25/11:30pm 27.1 31.4 22.7 77 3.0 ENE 4 6 2 3 1008.0 1007.9 -
25/11:00pm 27.3 31.3 22.7 76 3.1 NE 6 7 3 4 1008.1 1008.0 -
25/10:30pm 27.3 31.5 22.5 75 3.2 ENE 4 6 2 3 1008.0 1007.9 -
25/10:00pm 27.9 32.1 23.1 75 3.3 ENE 6 6 3 3 1007.9 1007.8 -
25/09:30pm 28.1 32.2 23.0 74 3.5 ENE 6 9 3 5 1007.7 1007.6 -
25/09:00pm 28.4 32.7 23.3 74 3.5 NNE 6 9 3 5 1007.7 1007.6 -
25/08:30pm 28.5 32.4 23.0 72 3.8 NE 7 13 4 7 1007.7 1007.6 -
25/08:00pm 28.7 32.6 22.9 71 4.0 NNE 7 13 4 7 1007.4 1007.3 -
25/07:30pm 28.8 32.5 22.5 68 4.3 NE 7 11 4 6 1007.2 1007.1 -
25/07:00pm 29.2 32.4 22.4 66 4.6 NE 9 15 5 8 1007.3 1007.2 -
25/06:30pm 29.5 32.9 22.7 67 4.6 N 9 15 5 8 1007.0 1006.9 -
25/06:00pm 30.4 33.4 22.6 63 5.3 N 11 17 6 9 1007.1 1007.0 -
25/05:30pm 31.1 33.6 22.4 60 5.9 N 13 19 7 10 1006.9 1006.8 -
25/05:00pm 31.9 33.8 22.0 55 6.7 N 15 22 8 12 1006.4 1006.3 -
25/04:30pm 33.1 35.4 22.8 54 7.1 N 15 24 8 13 1006.2 1006.1 -
25/04:00pm 33.5 35.5 22.3 52 7.7 N 15 20 8 11 1006.3 1006.2 -
25/03:30pm 33.5 34.9 21.0 48 8.4 NNE 15 22 8 12 1006.3 1006.2 -
25/03:00pm 33.9 34.9 21.0 47 8.7 NNE 17 26 9 14 1006.2 1006.1 -
25/02:30pm 34.1 35.5 21.9 49 8.3 NNE 17 24 9 13 1006.3 1006.2 -
25/02:00pm 34.4 35.4 22.1 48 8.4 N 20 30 11 16 1006.8 1006.7 -
25/01:30pm 34.9 36.0 21.9 46 8.9 N 19 26 10 14 1007.5 1007.4 -
25/01:00pm 35.3 37.1 22.6 47 8.8 N 17 24 9 13 1008.0 1007.9 -
25/12:30pm 34.3 35.7 21.0 45 9.0 N 15 22 8 12 1008.4 1008.3 -
25/12:00pm 35.1 37.0 21.4 45 9.3 NNE 13 19 7 10 1008.8 1008.7 -
25/11:30am 33.6 35.7 21.7 49 8.1 NNE 13 19 7 10 1009.2 1009.1 -
25/11:00am 33.4 36.1 22.8 53 7.3 NNE 13 19 7 10 1009.3 1009.2 -
25/10:30am 32.3 35.7 22.7 57 6.6 NNE 9 15 5 8 1009.4 1009.3 -
25/10:00am 33.5 36.5 22.0 51 7.8 NNE 9 15 5 8 1009.7 1009.6 -
25/09:30am 33.3 36.9 23.0 54 7.1 E 9 15 5 8 1009.5 1009.4 -
25/09:00am 32.3 35.6 21.8 54 7.1 ENE 7 15 4 8 1009.4 1009.3 -
25/08:30am 31.2 35.3 23.3 63 5.5 E 7 13 4 7 1009.3 1009.2 -
25/08:00am 30.6 35.5 24.7 71 4.1 E 7 11 4 6 1009.1 1009.0 -
25/07:30am 29.1 34.6 24.7 77 3.1 ENE 4 7 2 4 1008.9 1008.8 -
25/07:00am 27.9 33.4 25.3 86 1.8 ENE 6 7 3 4 1008.6 1008.5 -
25/06:30am 26.0 31.0 23.9 88 1.4 ENE 4 6 2 3 1008.3 1008.2 -
25/06:00am 25.4 29.6 23.1 87 1.6 ENE 6 6 3 3 1008.0 1007.9 -
25/05:30am 25.4 29.3 22.9 86 1.7 E 7 9 4 5 1007.9 1007.8 -
25/05:00am 25.4 29.1 22.3 83 2.1 E 6 7 3 4 1007.8 1007.7 -
25/04:30am 25.8 29.6 22.7 83 2.1 ENE 7 7 4 4 1007.6 1007.5 -
25/04:00am 26.1 30.6 23.0 83 2.1 ENE 4 6 2 3 1007.4 1007.3 -
25/03:30am 26.4 31.1 23.3 83 2.1 ENE 4 6 2 3 1007.5 1007.4 -
25/03:00am 26.3 30.8 23.0 82 2.2 ENE 4 4 2 2 1007.7 1007.6 -
25/02:30am 26.4 30.9 22.9 81 2.4 E 4 4 2 2 1007.8 1007.7 -
25/02:00am 26.7 31.2 23.0 80 2.5 E 4 6 2 3 1008.3 1008.2 -
25/01:30am 26.9 31.0 22.9 79 2.7 E 6 7 3 4 1008.5 1008.4 -
25/01:00am 26.8 30.5 22.6 78 2.8 NE 7 9 4 5 1008.6 1008.5 -
25/12:30am 27.3 31.6 23.3 79 2.7 E 6 7 3 4 1009.3 1009.2 -
25/12:00am 27.4 32.5 23.4 79 2.7 N 2 4 1 2 1009.8 1009.7 -
 
Date/Time
CST
Temp
°C
App
Temp
°C
Dew
Point
Rel
Hum
%
Delta-T
°C
Wind Press
QNH
hPa
Press
MSL
hPa
Rain
since 9 am
mm
Dir
 
Spd
km/h
Gust
km/h
Spd
kts
Gust
kts
24/11:30pm 27.2 32.4 22.8 77 3.0 CALM 0 0 0 0 1010.3 1010.2 -
24/11:00pm 26.9 31.0 22.3 76 3.1 ENE 4 4 2 2 1010.4 1010.3 -
24/10:30pm 27.1 31.4 22.7 77 3.0 NE 4 6 2 3 1009.9 1009.8 -
24/10:00pm 27.3 32.4 22.7 76 3.1 CALM 0 0 0 0 1009.7 1009.6 -
24/09:30pm 27.9 32.6 23.3 76 3.2 N 4 6 2 3 1009.4 1009.3 -
24/09:00pm 28.1 32.2 23.0 74 3.5 N 6 7 3 4 1008.9 1008.8 -
24/08:30pm 28.2 32.1 22.9 73 3.6 N 7 9 4 5 1008.6 1008.5 -
24/08:00pm 28.4 32.5 22.9 72 3.7 N 6 9 3 5 1008.5 1008.4 -
24/07:30pm 28.6 32.3 22.6 70 4.1 N 7 11 4 6 1008.4 1008.3 -
24/07:00pm 28.8 32.1 22.5 68 4.3 N 9 15 5 8 1007.6 1007.5 -
24/06:30pm 29.2 32.3 22.9 69 4.3 N 11 17 6 9 1007.4 1007.3 -
24/06:00pm 30.2 32.8 22.6 63 5.2 N 13 19 7 10 1007.1 1007.0 -
24/05:30pm 30.9 33.0 22.5 61 5.7 NNE 15 22 8 12 1007.0 1006.9 -
24/05:00pm 31.5 32.5 21.7 56 6.6 NNE 19 28 10 15 1006.7 1006.6 -
24/04:30pm 32.2 33.3 22.0 55 6.9 NNE 19 28 10 15 1006.5 1006.4 -
24/04:00pm 32.9 33.9 21.7 51 7.6 NE 19 24 10 13 1006.7 1006.6 -
24/03:30pm 33.8 35.5 20.9 46 8.7 NNE 13 20 7 11 1006.7 1006.6 -
24/03:00pm 33.3 35.5 23.9 58 6.6 NNW 19 26 10 14 1007.1 1007.0 -
24/02:30pm 33.0 35.4 24.2 60 6.2 NW 19 26 10 14 1007.7 1007.6 -
24/02:00pm 33.0 36.3 24.5 61 6.0 NW 15 22 8 12 1008.5 1008.4 -
24/01:30pm 32.6 35.4 24.9 64 5.4 WNW 19 26 10 14 1009.1 1009.0 -
24/01:00pm 32.8 35.6 24.3 61 6.0 WNW 17 26 9 14 1009.6 1009.5 -
24/12:30pm 33.1 36.2 24.8 61 5.9 W 17 24 9 13 1010.0 1009.9 -
24/12:00pm 32.6 36.0 24.6 62 5.6 W 15 20 8 11 1010.4 1010.3 -
24/11:30am 32.9 36.9 24.4 61 6.0 NW 11 19 6 10 1010.8 1010.7 -
24/11:00am 32.8 36.7 24.3 61 6.0 NNW 11 15 6 8 1011.0 1010.9 -
24/10:30am 31.4 34.7 23.8 64 5.3 N 13 19 7 10 1011.0 1010.9 -
24/10:00am 32.3 36.5 23.5 59 6.1 NNE 7 11 4 6 1011.0 1010.9 -
24/09:30am 32.1 36.6 23.6 60 5.9 NE 6 13 3 7 1010.9 1010.8 -
24/09:00am 30.8 35.3 24.0 67 4.7 NNE 7 11 4 6 1010.7 1010.6 -
24/08:30am 30.2 35.0 24.1 70 4.2 NNE 6 11 3 6 1010.7 1010.6 -
24/08:00am 29.8 34.7 24.4 73 3.8 NE 6 9 3 5 1010.6 1010.5 -
24/07:30am 28.6 34.7 25.6 84 2.1 NE 4 7 2 4 1010.3 1010.2 -
24/07:00am 26.9 34.0 26.6 98 0.2 ENE 2 4 1 2 1010.1 1010.0 -
24/06:30am 25.2 30.7 24.7 97 0.3 E 4 4 2 2 1010.0 1009.9 -
24/06:00am 24.9 30.7 23.9 94 0.7 CALM 0 0 0 0 1009.6 1009.5 -
24/05:30am 25.2 30.6 23.8 92 1.0 ENE 2 4 1 2 1009.5 1009.4 -
24/05:00am 25.8 31.3 24.6 93 0.8 ENE 4 6 2 3 1009.4 1009.3 -
24/04:30am 26.1 31.7 24.9 93 0.8 NE 4 6 2 3 1009.1 1009.0 -
24/04:00am 25.8 31.0 24.2 91 1.1 NE 4 6 2 3 1008.9 1008.8 -
24/03:30am 26.0 31.2 24.2 90 1.2 ENE 4 6 2 3 1008.9 1008.8 -
24/03:00am 26.5 31.5 24.5 89 1.4 NE 6 7 3 4 1008.8 1008.7 -
24/02:30am 26.4 31.2 24.1 87 1.6 ENE 6 7 3 4 1009.0 1008.9 -
24/02:00am 26.7 31.4 24.0 85 1.9 NE 6 7 3 4 1009.0 1008.9 -
24/01:30am 27.2 32.0 24.5 85 1.9 NE 7 13 4 7 1009.3 1009.2 -
24/01:00am 27.2 32.0 24.5 85 1.9 NNE 7 13 4 7 1009.5 1009.4 -
24/12:30am 27.3 32.1 24.4 84 2.0 NE 7 15 4 8 1009.7 1009.6 -
24/12:00am 27.0 31.7 23.9 83 2.1 NE 6 11 3 6 1009.8 1009.7 -
 
Date/Time
CST
Temp
°C
App
Temp
°C
Dew
Point
Rel
Hum
%
Delta-T
°C
Wind Press
QNH
hPa
Press
MSL
hPa
Rain
since 9 am
mm
Dir
 
Spd
km/h
Gust
km/h
Spd
kts
Gust
kts
23/11:30pm 27.1 31.6 23.6 81 2.4 ENE 6 9 3 5 1009.9 1009.8 -
23/11:00pm 27.6 31.6 23.8 80 2.6 NE 9 15 5 8 1009.8 1009.7 -
23/10:30pm 27.3 31.7 23.5 80 2.6 NE 6 9 3 5 1009.8 1009.7 -
23/10:00pm 27.8 31.7 24.2 81 2.5 NE 11 20 6 11 1009.6 1009.5 -
23/09:30pm 27.8 31.8 24.4 82 2.4 NNE 11 19 6 10 1009.4 1009.3 -
23/09:00pm 27.9 31.5 24.3 81 2.5 NNE 13 20 7 11 1009.4 1009.3 -
23/08:30pm 28.0 31.5 24.2 80 2.6 NE 13 19 7 10 1009.3 1009.2 -
23/08:00pm 28.1 31.8 23.9 78 2.9 NE 11 19 6 10 1009.0 1008.9 -
23/07:30pm 28.3 31.5 23.7 76 3.2 NE 13 24 7 13 1008.7 1008.6 -
23/07:00pm 28.6 31.2 23.3 73 3.6 NE 15 22 8 12 1008.3 1008.2 -
23/06:30pm 29.5 31.8 22.7 67 4.6 ENE 15 22 8 12 1008.2 1008.1 -
23/06:00pm 30.9 32.8 22.8 62 5.6 ENE 17 24 9 13 1008.3 1008.2 -
23/05:30pm 31.5 31.7 20.1 50 7.6 ENE 19 28 10 15 1008.2 1008.1 -
23/05:00pm 32.3 33.5 21.5 53 7.3 NE 17 26 9 14 1008.0 1007.9 -
23/04:30pm 33.4 33.9 21.2 48 8.2 ENE 20 30 11 16 1008.0 1007.9 -
23/04:00pm 34.4 34.5 19.2 40 10.0 ENE 17 24 9 13 1008.1 1008.0 -
23/03:30pm 34.7 34.8 19.1 39 10.3 NE 17 26 9 14 1008.3 1008.2 -
23/03:00pm 35.9 37.0 21.3 42 9.9 E 17 26 9 14 1008.5 1008.4 -
23/02:30pm 36.3 38.4 22.5 45 9.5 ENE 15 24 8 13 1008.8 1008.7 -
23/02:00pm 36.2 36.9 20.4 39 10.6 E 17 26 9 14 1009.0 1008.9 -
23/01:30pm 36.1 37.7 20.8 41 10.4 NE 13 19 7 10 1009.3 1009.2 -
23/01:00pm 35.4 37.8 20.9 42 9.8 E 9 17 5 9 1009.8 1009.7 -
23/12:30pm 35.3 38.7 23.3 50 8.4 E 11 22 6 12 1010.2 1010.1 -
23/12:00pm 34.8 37.5 22.2 48 8.6 E 11 20 6 11 1010.7 1010.6 -
23/11:30am 35.7 39.0 22.6 46 9.1 E 9 19 5 10 1011.0 1010.9 -
23/11:00am 34.3 37.5 22.4 50 8.2 ENE 9 17 5 9 1011.3 1011.2 -
23/10:30am 33.7 37.2 22.8 53 7.5 ENE 9 19 5 10 1011.8 1011.7 -
23/10:00am 33.8 37.3 23.5 55 7.2 ENE 11 19 6 10 1011.8 1011.7 -

Other Formats:

Comma delimited format used in spreadsheet applications
http://www.bom.gov.au/fwo/IDD60801/IDD60801.94108.axf

JavaScript Object Notation format (JSON) in row-major order
http://www.bom.gov.au/fwo/IDD60801/IDD60801.94108.json